Bookmark and Share
Track history (hours):
 

Pelican

More information available from US FCC via Universal Licensing System and Coast Guard Vessel Documentation Center.

Last reported at 2013-Sep-01 14:33 UTC. Time now 2014-Apr-21 04:58 UTC.
Position N 47°40' W 122°22'.
Warning: this ship's position is months out of date.

Length 16 m; draft 2 m.

Type: Pleasure craft. MMSI: 367027560.

NotesDate/timePositionNaut miles runAvg speedWind from/ knotsBaromVisibWave heightAir tempDewpointWater temp
2013-Sep-01 14:33N 47°40' W 122°22'0 6.2
2013-Sep-01 14:30N 47°40' W 122°23'2 0.1
2013-Aug-31 21:59N 47°41' W 122°24'2 4.3
2013-Aug-31 21:33N 47°43' W 122°25'1 8.8
2013-Aug-31 21:29N 47°43' W 122°25'9 9.3
2013-Aug-31 20:33N 47°52' W 122°23'9 8.9
2013-Aug-31 19:31N 48°01' W 122°21'18 7.9
2013-Aug-31 17:10N 48°19' W 122°30'11 6.7
2013-Aug-31 15:33N 48°29' W 122°32'3 0.2
2013-Aug-30 21:10N 48°31' W 122°37'2 3.8
2013-Aug-30 20:33N 48°31' W 122°40'  
2013-Aug-25 19:30N 48°37' W 123°10'27 9.0
2013-Aug-25 16:28N 48°59' W 123°35'8 9.1
2013-Aug-25 15:34N 49°05' W 123°44'9 8.5
2013-Aug-25 14:33N 49°10' W 123°54'  
2013-Aug-22 21:05N 49°10' W 123°56'4 7.7
2013-Aug-22 20:33N 49°13' W 123°51'8 8.2
2013-Aug-22 19:33N 49°21' W 123°48'9 9.4
2013-Aug-22 18:33N 49°28' W 123°58'9 8.6
2013-Aug-22 17:33N 49°35' W 124°04'  

Dump ship's entire track history

sailing weather and tide predictions

Pelican — WDC4616 — position and weather